Terminal Aerodrome Forecast
Issued by NWS Los Angeles, CA

Home | Current Version | Previous Version | Text Only | Print | Product List | Glossary On
Versions: 1 2 3 4 5 6 7 8 9 10 11 12 13 14 15 16 17 18 19 20 21 22 23
000
FTUS46 KLOX 250500
TAFSMX
TAF
KSMX 250521Z 2506/2606 29006KT P6SM SKC
     FM250800 VRB03KT 2SM BR OVC003
     FM251100 VRB03KT 1/2SM FG VV003
     FM251600 VRB05KT 5SM BR SCT005
     FM251800 31010KT P6SM SKC
     FM260300 VRB03KT P6SM SKC=

USA.gov is the U.S. government's official web portal to all federal, state and local government web resources and services.